Time;durP1;ratioP1;P1;durP2;ratioP2;P2;SDS_P1;SDS_P2;PMS_P1;PMS_P2;Temp;Humidity;BMP_temperature;BMP_pressure;BME280_temperature;BME280_humidity;BME280_pressure;Samples;Min_cycle;Max_cycle;Signal;HPM_P1;HPM_P2
2023/11/27 00:00:24;;;;;;;17.98;14.48;;;21.50;83.90;;;;;;5025682;28;20445;-74
2023/11/27 00:02:52;;;;;;;20.33;15.20;;;21.50;84.00;;;;;;5025359;28;22174;-73
2023/11/27 00:05:19;;;;;;;18.13;14.07;;;21.50;84.00;;;;;;5023824;28;20473;-74
2023/11/27 00:07:45;;;;;;;19.47;14.90;;;21.50;84.00;;;;;;5022358;28;20459;-73
2023/11/27 00:10:12;;;;;;;18.02;13.95;;;21.40;83.90;;;;;;5018052;28;20462;-73
2023/11/27 00:12:39;;;;;;;17.20;12.73;;;21.40;83.90;;;;;;5022460;28;20203;-75
2023/11/27 00:15:08;;;;;;;19.53;15.20;;;21.40;83.90;;;;;;5025810;28;20579;-73
2023/11/27 00:17:35;;;;;;;17.60;13.47;;;21.40;83.90;;;;;;5022827;28;20595;-75
2023/11/27 00:20:02;;;;;;;14.67;11.93;;;21.40;83.90;;;;;;5020572;28;20457;-74
2023/11/27 00:22:29;;;;;;;20.37;15.33;;;21.40;83.90;;;;;;5021606;28;20558;-74
2023/11/27 00:24:56;;;;;;;15.43;13.47;;;21.40;83.90;;;;;;5025911;28;20978;-74
2023/11/27 00:27:22;;;;;;;16.13;14.07;;;21.40;83.90;;;;;;5020382;28;20454;-74
2023/11/27 00:29:49;;;;;;;15.97;13.57;;;21.40;83.90;;;;;;5024286;28;20463;-71
2023/11/27 00:32:17;;;;;;;16.40;13.70;;;21.40;83.90;;;;;;5022427;28;20845;-73
2023/11/27 00:34:44;;;;;;;17.33;14.53;;;21.40;83.90;;;;;;5020697;28;20469;-73
2023/11/27 00:37:10;;;;;;;16.90;14.73;;;21.40;83.90;;;;;;5020525;28;20520;-72
2023/11/27 00:39:37;;;;;;;16.30;12.93;;;21.40;83.90;;;;;;5029197;28;20461;-72
2023/11/27 00:42:05;;;;;;;18.37;13.20;;;21.40;83.90;;;;;;5027627;28;20958;-73
2023/11/27 00:44:32;;;;;;;17.90;12.63;;;21.40;84.00;;;;;;5027464;28;20466;-71
2023/11/27 00:46:59;;;;;;;19.80;13.40;;;21.40;83.90;;;;;;5025913;28;20465;-70
2023/11/27 00:49:28;;;;;;;18.43;13.17;;;21.40;84.00;;;;;;5028559;28;20853;-73
2023/11/27 00:51:54;;;;;;;14.13;12.40;;;21.40;84.00;;;;;;5026307;28;20465;-75
2023/11/27 00:54:21;;;;;;;15.17;12.77;;;21.40;83.90;;;;;;5025986;28;21437;-73
2023/11/27 00:56:48;;;;;;;16.47;13.73;;;21.40;84.00;;;;;;5028368;28;20485;-72
2023/11/27 00:59:14;;;;;;;18.67;14.07;;;21.40;84.00;;;;;;5027796;28;20457;-72
2023/11/27 01:01:41;;;;;;;17.40;13.97;;;21.40;84.00;;;;;;5029030;28;21309;-74
2023/11/27 01:04:08;;;;;;;14.77;12.57;;;21.40;84.00;;;;;;5026420;28;20469;-73
2023/11/27 01:06:36;;;;;;;17.47;13.30;;;21.30;83.90;;;;;;5027479;28;20494;-72
2023/11/27 01:09:03;;;;;;;15.60;14.00;;;21.40;84.00;;;;;;5020306;28;21017;-74
2023/11/27 01:11:30;;;;;;;18.57;14.40;;;21.40;84.00;;;;;;5027770;28;20463;-72
2023/11/27 01:13:56;;;;;;;14.37;12.27;;;21.30;83.90;;;;;;5026633;28;20458;-71
2023/11/27 01:16:25;;;;;;;15.17;11.70;;;21.30;83.90;;;;;;5024575;28;20486;-72
2023/11/27 01:18:51;;;;;;;16.17;13.00;;;21.30;83.80;;;;;;5025281;28;21255;-73
2023/11/27 01:21:18;;;;;;;17.30;12.20;;;21.30;83.90;;;;;;5026776;28;20465;-72
2023/11/27 01:23:46;;;;;;;14.73;11.60;;;21.30;83.90;;;;;;5027375;28;20469;-73
2023/11/27 01:26:13;;;;;;;14.10;11.53;;;21.30;83.90;;;;;;5025864;28;20470;-73
2023/11/27 01:28:39;;;;;;;15.07;12.03;;;21.30;83.90;;;;;;5023950;28;20465;-74
2023/11/27 01:31:08;;;;;;;16.27;12.37;;;21.30;83.90;;;;;;5028102;28;21284;-72
2023/11/27 01:33:34;;;;;;;15.80;11.10;;;21.30;83.90;;;;;;5030169;28;20462;-74
2023/11/27 01:36:01;;;;;;;14.60;12.37;;;21.30;84.00;;;;;;5017120;28;20458;-73
2023/11/27 01:38:28;;;;;;;13.67;11.73;;;21.30;83.90;;;;;;5023626;28;20477;-72
2023/11/27 01:40:56;;;;;;;13.37;11.07;;;21.30;84.00;;;;;;5027545;28;20459;-73
2023/11/27 01:43:23;;;;;;;13.43;11.97;;;21.30;83.90;;;;;;5032793;28;20458;-72
2023/11/27 01:45:55;;;;;;;15.47;11.60;;;21.30;84.00;;;;;;5011704;28;21658;-74
2023/11/27 01:48:22;;;;;;;16.77;12.83;;;21.30;84.00;;;;;;5024260;28;21068;-73
2023/11/27 01:50:49;;;;;;;15.77;12.10;;;21.20;83.90;;;;;;5023812;28;20472;-72
2023/11/27 01:53:16;;;;;;;14.70;12.07;;;21.20;83.90;;;;;;5014542;28;20465;-72
2023/11/27 01:55:42;;;;;;;12.57;10.30;;;21.30;84.00;;;;;;5022019;28;20956;-71
2023/11/27 01:58:10;;;;;;;14.20;10.90;;;21.30;83.90;;;;;;5029008;28;20486;-71
2023/11/27 02:00:38;;;;;;;15.13;11.33;;;21.30;84.00;;;;;;5029934;28;20465;-72
2023/11/27 02:03:05;;;;;;;13.90;9.70;;;21.20;83.90;;;;;;5015537;28;20459;-73
2023/11/27 02:05:32;;;;;;;13.93;10.80;;;21.20;83.90;;;;;;5022436;28;20855;-72
2023/11/27 02:07:58;;;;;;;18.57;12.60;;;21.30;84.10;;;;;;5023861;28;20219;-72
2023/11/27 02:10:25;;;;;;;12.53;11.20;;;21.20;84.00;;;;;;5021094;28;20458;-71
2023/11/27 02:12:52;;;;;;;12.37;11.00;;;21.20;84.00;;;;;;5020616;28;20468;-71
2023/11/27 02:15:20;;;;;;;11.33;10.23;;;21.20;83.90;;;;;;5024812;28;20970;-73
2023/11/27 02:17:47;;;;;;;14.70;9.93;;;21.20;83.90;;;;;;5018978;28;20477;-72
2023/11/27 02:20:14;;;;;;;14.57;10.63;;;21.20;84.00;;;;;;5019768;28;20465;-72
2023/11/27 02:22:41;;;;;;;14.93;11.33;;;21.20;83.90;;;;;;5024676;28;20484;-71
2023/11/27 02:25:09;;;;;;;14.37;11.30;;;21.20;84.00;;;;;;5024493;28;20457;-72
2023/11/27 02:27:38;;;;;;;12.90;10.87;;;21.20;84.00;;;;;;5028255;28;20475;-73
2023/11/27 02:30:06;;;;;;;14.47;10.87;;;21.20;84.00;;;;;;5021845;28;20461;-71
2023/11/27 02:32:32;;;;;;;12.50;11.20;;;21.20;84.00;;;;;;5019915;28;20458;-70
2023/11/27 02:34:59;;;;;;;13.03;10.00;;;21.20;84.00;;;;;;5011251;28;21222;-70
2023/11/27 02:37:26;;;;;;;13.10;10.23;;;21.20;84.10;;;;;;5020934;28;20482;-69
2023/11/27 02:39:53;;;;;;;13.17;10.73;;;21.20;84.10;;;;;;5021335;28;20461;-72
2023/11/27 02:42:21;;;;;;;11.43;9.63;;;21.20;84.00;;;;;;5020848;28;20457;-72
2023/11/27 02:44:47;;;;;;;13.13;10.73;;;21.20;84.10;;;;;;5019185;28;20810;-70
2023/11/27 02:47:14;;;;;;;11.63;10.43;;;21.20;84.10;;;;;;5021246;28;20474;-69
2023/11/27 02:49:42;;;;;;;13.03;11.67;;;21.20;84.10;;;;;;5019050;28;20469;-71
2023/11/27 02:52:09;;;;;;;14.00;10.57;;;21.20;84.00;;;;;;5019538;28;20489;-70
2023/11/27 02:54:38;;;;;;;14.73;10.30;;;21.10;84.00;;;;;;5018629;28;21046;-71
2023/11/27 02:57:05;;;;;;;10.80;9.50;;;21.20;84.10;;;;;;5017259;28;20719;-72
2023/11/27 02:59:33;;;;;;;12.63;10.57;;;21.20;84.10;;;;;;5019464;28;20984;-72
2023/11/27 03:02:00;;;;;;;11.33;9.70;;;21.20;84.10;;;;;;5019094;28;20465;-71
2023/11/27 03:04:30;;;;;;;10.10;8.53;;;21.10;83.90;;;;;;5020573;28;21244;-70
2023/11/27 03:06:57;;;;;;;12.50;10.03;;;21.20;84.00;;;;;;5012353;28;20499;-70
2023/11/27 03:09:23;;;;;;;11.30;9.43;;;21.10;84.00;;;;;;5020081;28;20468;-72
2023/11/27 03:11:50;;;;;;;10.93;9.30;;;21.10;84.00;;;;;;5019531;28;20458;-72
2023/11/27 03:14:17;;;;;;;10.30;9.30;;;21.10;84.00;;;;;;5016870;28;21053;-71
2023/11/27 03:16:45;;;;;;;11.27;9.07;;;21.10;84.10;;;;;;5013192;28;20457;-70
2023/11/27 03:19:12;;;;;;;11.97;9.60;;;21.10;84.00;;;;;;5020550;28;20468;-72
2023/11/27 03:21:38;;;;;;;10.33;9.33;;;21.10;84.00;;;;;;5021855;28;20475;-71
2023/11/27 03:24:06;;;;;;;11.33;10.13;;;21.10;84.00;;;;;;5019032;28;21081;-71
2023/11/27 03:26:33;;;;;;;11.97;9.97;;;21.10;84.00;;;;;;5017729;28;20458;-71
2023/11/27 03:29:00;;;;;;;11.50;8.43;;;21.10;84.00;;;;;;5021449;28;20803;-70
2023/11/27 03:31:27;;;;;;;14.00;10.93;;;21.10;84.00;;;;;;5024651;28;20507;-70
2023/11/27 03:33:55;;;;;;;11.27;9.20;;;21.10;84.00;;;;;;5019162;28;20461;-71
2023/11/27 03:36:21;;;;;;;11.87;9.50;;;21.10;84.00;;;;;;5015088;28;20208;-71
2023/11/27 03:38:48;;;;;;;12.80;8.83;;;21.10;84.10;;;;;;5015559;28;20482;-71
2023/11/27 03:41:18;;;;;;;9.63;8.60;;;21.10;84.00;;;;;;5019356;28;20467;-71
2023/11/27 03:43:45;;;;;;;15.00;10.10;;;21.10;84.10;;;;;;5018922;28;20204;-69
2023/11/27 03:46:12;;;;;;;12.68;9.88;;;21.10;84.00;;;;;;5018537;28;20473;-70
2023/11/27 03:48:39;;;;;;;9.75;8.80;;;21.10;84.10;;;;;;5023729;28;20568;-71
2023/11/27 03:51:08;;;;;;;9.88;8.52;;;21.10;84.10;;;;;;5022776;28;20196;-69
2023/11/27 03:53:34;;;;;;;10.70;8.52;;;21.10;84.00;;;;;;5020162;28;20210;-70
2023/11/27 03:56:02;;;;;;;10.07;8.60;;;21.10;84.10;;;;;;5022214;28;20206;-71
2023/11/27 03:58:29;;;;;;;11.27;10.02;;;21.00;84.00;;;;;;5023462;28;20211;-69
2023/11/27 04:00:57;;;;;;;11.57;9.47;;;21.00;84.00;;;;;;5020448;28;20195;-69
2023/11/27 04:03:24;;;;;;;12.90;9.23;;;21.00;84.00;;;;;;5019353;28;21233;-69
2023/11/27 04:05:51;;;;;;;12.02;9.45;;;21.10;84.10;;;;;;5019487;28;20206;-73
2023/11/27 04:08:19;;;;;;;10.23;9.10;;;21.10;84.10;;;;;;5019270;28;20203;-69
2023/11/27 04:10:46;;;;;;;11.90;9.17;;;21.00;84.00;;;;;;5023065;28;20462;-71
2023/11/27 04:13:12;;;;;;;10.32;8.50;;;21.00;83.90;;;;;;5025251;28;21299;-72
2023/11/27 04:15:39;;;;;;;10.80;9.50;;;21.10;84.10;;;;;;5020148;28;20211;-72
2023/11/27 04:18:06;;;;;;;9.67;8.43;;;21.00;83.90;;;;;;5019068;28;20525;-72
2023/11/27 04:20:33;;;;;;;8.60;7.70;;;21.10;84.10;;;;;;5020577;28;20460;-71
2023/11/27 04:23:01;;;;;;;9.10;8.20;;;21.00;83.90;;;;;;5026459;28;20539;-72
2023/11/27 04:25:29;;;;;;;9.13;8.23;;;21.10;84.20;;;;;;5025330;28;20202;-70
2023/11/27 04:27:56;;;;;;;11.43;8.52;;;21.00;84.00;;;;;;5021159;28;20210;-69
2023/11/27 04:30:23;;;;;;;9.37;8.13;;;21.00;83.90;;;;;;5026095;28;20224;-72
2023/11/27 04:32:50;;;;;;;9.80;8.68;;;21.00;83.90;;;;;;5024037;28;20454;-72
2023/11/27 04:35:16;;;;;;;10.00;8.33;;;21.00;84.00;;;;;;5025798;28;20754;-72
2023/11/27 04:37:43;;;;;;;8.73;7.68;;;21.00;83.90;;;;;;5020467;28;20497;-71
2023/11/27 04:40:14;;;;;;;13.63;9.40;;;21.00;84.00;;;;;;5021503;28;20199;-71
2023/11/27 04:42:43;;;;;;;9.80;7.87;;;21.00;84.10;;;;;;5026066;28;20563;-71
2023/11/27 04:45:10;;;;;;;9.55;8.07;;;21.00;84.00;;;;;;5023754;28;20462;-70
2023/11/27 04:47:37;;;;;;;11.55;7.95;;;21.00;84.00;;;;;;5021470;28;20208;-70
2023/11/27 04:50:04;;;;;;;11.35;7.15;;;21.00;84.00;;;;;;5021254;28;20201;-70
2023/11/27 04:52:30;;;;;;;9.17;8.27;;;21.00;84.00;;;;;;5023157;28;20225;-70
2023/11/27 04:54:57;;;;;;;9.97;7.27;;;21.00;84.00;;;;;;5021486;28;20459;-70
2023/11/27 04:57:24;;;;;;;8.60;7.73;;;21.00;84.00;;;;;;5022911;28;20462;-71
2023/11/27 04:59:52;;;;;;;10.52;7.97;;;21.00;84.00;;;;;;5020969;28;20472;-70
2023/11/27 05:02:19;;;;;;;11.45;8.68;;;21.00;84.00;;;;;;5022171;28;22372;-72
2023/11/27 05:04:46;;;;;;;9.00;7.30;;;21.00;84.00;;;;;;5026253;28;20230;-70
2023/11/27 05:07:13;;;;;;;9.00;8.10;;;21.00;84.00;;;;;;5021069;28;20195;-69
2023/11/27 05:09:40;;;;;;;9.60;7.00;;;21.00;84.00;;;;;;5019990;28;20283;-69
2023/11/27 05:12:08;;;;;;;9.23;7.25;;;21.00;84.00;;;;;;5021348;28;20455;-70
2023/11/27 05:14:35;;;;;;;9.55;7.45;;;21.00;84.00;;;;;;5022147;28;20214;-71
2023/11/27 05:17:04;;;;;;;9.60;8.60;;;21.00;84.00;;;;;;5016355;28;20288;-69
2023/11/27 05:19:31;;;;;;;8.60;7.37;;;21.00;84.00;;;;;;5019629;28;21121;-72
2023/11/27 05:21:58;;;;;;;8.10;7.30;;;21.00;84.00;;;;;;5023463;28;20468;-72
2023/11/27 05:24:24;;;;;;;8.50;7.65;;;21.00;84.00;;;;;;5025918;28;20208;-72
2023/11/27 05:26:51;;;;;;;8.63;7.55;;;21.00;84.00;;;;;;5022046;28;20199;-71
2023/11/27 05:29:18;;;;;;;8.02;7.20;;;21.00;84.00;;;;;;5018214;28;20660;-71
2023/11/27 05:31:44;;;;;;;8.00;7.22;;;21.00;84.00;;;;;;5022151;28;20204;-69
2023/11/27 05:34:13;;;;;;;10.60;8.02;;;21.00;84.00;;;;;;5018775;28;20559;-71
2023/11/27 05:36:39;;;;;;;9.90;7.88;;;21.00;84.10;;;;;;5022736;28;20203;-71
2023/11/27 05:39:09;;;;;;;8.75;7.40;;;20.90;83.90;;;;;;5021909;28;20242;-70
2023/11/27 05:41:37;;;;;;;8.18;7.35;;;21.00;84.00;;;;;;5024358;28;20258;-71
2023/11/27 05:44:04;;;;;;;8.88;7.97;;;21.00;84.00;;;;;;5022481;28;20298;-70
2023/11/27 05:46:31;;;;;;;6.85;6.25;;;21.00;83.90;;;;;;5023203;28;20199;-70
2023/11/27 05:48:58;;;;;;;7.75;7.05;;;21.00;84.00;;;;;;5016955;28;20194;-70
2023/11/27 05:51:26;;;;;;;10.07;7.00;;;21.00;84.00;;;;;;5021192;28;20257;-69
2023/11/27 05:53:55;;;;;;;9.90;7.30;;;21.00;84.10;;;;;;5022753;28;20207;-71
2023/11/27 05:56:22;;;;;;;8.52;7.53;;;21.00;84.00;;;;;;5023736;28;20457;-70
2023/11/27 05:58:49;;;;;;;7.75;7.03;;;21.00;84.00;;;;;;5024975;28;20211;-70
2023/11/27 06:01:16;;;;;;;9.38;7.75;;;21.00;84.00;;;;;;5020232;28;21129;-73
2023/11/27 06:03:42;;;;;;;8.48;7.68;;;20.90;83.90;;;;;;5023019;28;20744;-70
2023/11/27 06:06:11;;;;;;;7.40;6.40;;;21.00;84.80;;;;;;5017561;28;20218;-71
2023/11/27 06:08:41;;;;;;;7.00;6.30;;;21.00;84.00;;;;;;5019780;28;20207;-70
2023/11/27 06:11:08;;;;;;;9.48;7.35;;;21.00;84.00;;;;;;5021459;28;20195;-70
2023/11/27 06:13:35;;;;;;;7.95;6.68;;;20.90;83.90;;;;;;5025314;28;20199;-70
2023/11/27 06:16:02;;;;;;;7.77;6.97;;;20.90;83.90;;;;;;5027771;28;20202;-72
2023/11/27 06:18:29;;;;;;;8.23;7.32;;;20.90;83.90;;;;;;5022372;28;20481;-70
2023/11/27 06:20:55;;;;;;;9.60;6.72;;;21.00;84.00;;;;;;5027833;28;20207;-71
2023/11/27 06:23:23;;;;;;;10.23;8.52;;;20.90;83.80;;;;;;5024431;28;21453;-71
2023/11/27 06:25:51;;;;;;;8.00;6.63;;;20.90;83.80;;;;;;5024517;28;21039;-71
2023/11/27 06:28:17;;;;;;;8.15;6.75;;;20.90;83.80;;;;;;5023954;28;20583;-71
2023/11/27 06:30:44;;;;;;;9.55;6.85;;;20.90;83.80;;;;;;5025731;28;20204;-71
2023/11/27 06:33:11;;;;;;;9.13;7.23;;;20.90;83.80;;;;;;5022265;28;20661;-71
2023/11/27 06:35:38;;;;;;;6.88;6.10;;;20.90;83.80;;;;;;5028776;28;20463;-71
2023/11/27 06:38:05;;;;;;;8.48;7.28;;;21.00;83.90;;;;;;5024846;28;20219;-70
2023/11/27 06:40:31;;;;;;;8.52;7.65;;;20.90;83.80;;;;;;5028434;28;20206;-70
2023/11/27 06:42:59;;;;;;;7.25;5.90;;;20.90;83.80;;;;;;5032312;28;20540;-69
2023/11/27 06:45:26;;;;;;;8.75;6.97;;;20.90;83.70;;;;;;5029906;28;20191;-71
2023/11/27 06:47:53;;;;;;;7.32;6.32;;;20.90;83.70;;;;;;5025742;28;20599;-71
2023/11/27 06:50:20;;;;;;;9.25;6.20;;;20.90;83.80;;;;;;5028922;28;20190;-70
2023/11/27 06:52:47;;;;;;;7.22;6.55;;;20.90;83.80;;;;;;5026654;28;20191;-70
2023/11/27 06:55:14;;;;;;;7.28;6.22;;;20.90;83.80;;;;;;5025134;28;20190;-71
2023/11/27 06:57:41;;;;;;;6.63;5.78;;;20.90;83.70;;;;;;5031644;28;20192;-69
2023/11/27 07:00:11;;;;;;;8.10;6.07;;;20.90;83.70;;;;;;5031736;28;22533;-69
2023/11/27 07:02:38;;;;;;;7.57;6.68;;;20.90;83.70;;;;;;5023909;28;20245;-70
2023/11/27 07:05:05;;;;;;;7.10;6.20;;;20.90;84.50;;;;;;5023972;28;20204;-77
2023/11/27 07:07:32;;;;;;;7.00;6.28;;;20.90;83.60;;;;;;5021074;28;20238;-69
2023/11/27 07:10:00;;;;;;;7.00;6.20;;;20.80;83.50;;;;;;5023360;28;20262;-67
2023/11/27 07:12:27;;;;;;;6.97;5.75;;;20.90;83.70;;;;;;5023420;28;20462;-71
2023/11/27 07:14:53;;;;;;;6.30;5.47;;;20.90;83.60;;;;;;5023341;28;20564;-68
2023/11/27 07:17:21;;;;;;;7.07;6.43;;;20.80;83.50;;;;;;5020967;28;20195;-75
2023/11/27 07:19:48;;;;;;;5.82;5.20;;;20.80;83.50;;;;;;5021594;28;20225;-71
2023/11/27 07:22:16;;;;;;;7.07;6.22;;;20.80;83.40;;;;;;5026601;28;20203;-69
2023/11/27 07:24:42;;;;;;;15.83;5.67;;;20.80;83.50;;;;;;5024358;28;20203;-72
2023/11/27 07:27:09;;;;;;;7.45;5.68;;;20.80;83.70;;;;;;5028123;28;21005;-68
2023/11/27 07:29:36;;;;;;;6.50;5.35;;;20.80;83.90;;;;;;5028749;28;20207;-72
2023/11/27 07:32:04;;;;;;;8.05;6.22;;;20.80;84.00;;;;;;5029706;28;20596;-76
2023/11/27 07:34:32;;;;;;;5.53;4.97;;;20.80;84.30;;;;;;5021341;28;20783;-65
2023/11/27 07:36:59;;;;;;;5.72;5.22;;;20.80;84.70;;;;;;5021274;28;20231;-68
2023/11/27 07:39:26;;;;;;;6.00;5.27;;;20.80;84.80;;;;;;5024057;28;20223;-68
2023/11/27 07:41:52;;;;;;;6.30;5.70;;;20.80;85.00;;;;;;5024590;28;20469;-69
2023/11/27 07:44:19;;;;;;;8.32;6.43;;;20.90;85.30;;;;;;5023681;28;20207;-65
2023/11/27 07:46:46;;;;;;;9.88;5.78;;;20.90;85.50;;;;;;5019311;28;20195;-62
2023/11/27 07:49:13;;;;;;;17.13;5.47;;;20.90;85.50;;;;;;5024654;28;20274;-66
2023/11/27 07:51:41;;;;;;;6.90;5.80;;;21.00;86.40;;;;;;5023758;28;22239;-67
2023/11/27 07:54:08;;;;;;;7.80;5.60;;;21.00;85.50;;;;;;5029349;28;20200;-68
2023/11/27 07:56:34;;;;;;;6.20;5.60;;;21.00;85.70;;;;;;5029830;28;20450;-67
2023/11/27 07:59:01;;;;;;;7.35;5.50;;;21.00;85.30;;;;;;5021810;28;20718;-67
2023/11/27 08:01:28;;;;;;;8.88;5.50;;;21.00;85.60;;;;;;5021391;28;21277;-69
2023/11/27 08:03:55;;;;;;;7.70;5.20;;;21.00;85.40;;;;;;5024157;28;20760;-71
2023/11/27 08:06:21;;;;;;;5.80;5.13;;;21.00;85.00;;;;;;5024691;28;20196;-67
2023/11/27 08:08:50;;;;;;;5.97;4.40;;;21.00;84.90;;;;;;5025041;28;20990;-70
2023/11/27 08:11:16;;;;;;;7.77;5.37;;;21.00;84.90;;;;;;5028103;28;20451;-68
2023/11/27 08:13:43;;;;;;;6.17;5.10;;;21.00;84.80;;;;;;5031145;28;21002;-71
2023/11/27 08:16:10;;;;;;;5.73;4.97;;;21.10;84.80;;;;;;5029066;28;20516;-68
2023/11/27 08:18:38;;;;;;;7.13;5.80;;;21.10;84.80;;;;;;5027355;28;20485;-70
2023/11/27 08:21:06;;;;;;;8.07;5.50;;;21.10;84.80;;;;;;5029568;28;20469;-68
2023/11/27 08:23:34;;;;;;;7.13;5.63;;;21.10;84.70;;;;;;5030707;28;20463;-68
2023/11/27 08:26:03;;;;;;;6.07;5.43;;;21.10;84.60;;;;;;5030846;28;20703;-69
2023/11/27 08:28:30;;;;;;;6.23;4.93;;;21.10;84.60;;;;;;5029420;28;20462;-69
2023/11/27 08:30:57;;;;;;;6.10;4.47;;;21.10;84.80;;;;;;5031455;28;20553;-70
2023/11/27 08:33:25;;;;;;;6.80;5.30;;;21.10;84.60;;;;;;5027553;28;20823;-70
2023/11/27 08:35:52;;;;;;;6.20;4.50;;;21.20;84.60;;;;;;5026707;28;20860;-67
2023/11/27 08:38:19;;;;;;;6.03;4.97;;;21.20;84.60;;;;;;5027758;28;20464;-66
2023/11/27 08:40:46;;;;;;;5.60;4.90;;;21.20;84.60;;;;;;5027749;28;20497;-72
2023/11/27 08:43:14;;;;;;;6.57;5.87;;;21.20;84.50;;;;;;5028106;28;20438;-71
2023/11/27 08:45:41;;;;;;;6.10;5.50;;;21.20;84.50;;;;;;5028139;28;20457;-67
2023/11/27 08:48:08;;;;;;;5.77;4.33;;;21.20;84.50;;;;;;5029601;28;20458;-72
2023/11/27 08:50:36;;;;;;;6.00;5.40;;;21.20;84.50;;;;;;5028900;28;20458;-66
2023/11/27 08:53:05;;;;;;;6.40;4.30;;;21.20;84.40;;;;;;5027235;28;20482;-66
2023/11/27 08:55:32;;;;;;;5.20;4.70;;;21.20;84.40;;;;;;5028866;28;20947;-66
2023/11/27 08:58:01;;;;;;;5.57;4.27;;;21.20;84.50;;;;;;5025448;28;20431;-69
2023/11/27 09:00:29;;;;;;;5.00;4.27;;;21.20;84.30;;;;;;5020007;28;20482;-69
2023/11/27 09:02:57;;;;;;;7.53;4.77;;;21.20;84.40;;;;;;5031339;28;20467;-69
2023/11/27 09:05:24;;;;;;;5.20;4.70;;;21.20;84.30;;;;;;5028616;28;20493;-71
2023/11/27 09:07:53;;;;;;;4.60;4.20;;;21.20;84.30;;;;;;5034333;28;20458;-65
2023/11/27 09:10:20;;;;;;;4.03;3.30;;;21.30;84.40;;;;;;5022110;28;20508;-65
2023/11/27 09:12:47;;;;;;;12.20;2.80;;;21.20;81.40;;;;;;5021734;28;20442;-64
2023/11/27 09:15:13;;;;;;;3.30;2.87;;;21.00;73.70;;;;;;5026880;28;20465;-65
2023/11/27 09:17:42;;;;;;;3.23;2.90;;;20.80;70.40;;;;;;5022417;28;20447;-74
2023/11/27 09:20:10;;;;;;;4.00;3.10;;;20.60;68.40;;;;;;5027799;28;21095;-74
2023/11/27 09:22:37;;;;;;;6.68;3.85;;;20.70;75.10;;;;;;5018002;28;20200;-68
2023/11/27 09:25:08;;;;;;;12.18;3.47;;;20.80;76.80;;;;;;5023930;28;20215;-72
2023/11/27 09:27:34;;;;;;;6.70;3.00;;;20.90;77.40;;;;;;5026978;28;20291;-69
2023/11/27 09:30:01;;;;;;;12.97;2.80;;;21.00;78.40;;;;;;5021119;28;20450;-69
2023/11/27 09:32:28;;;;;;;6.73;4.40;;;21.00;78.80;;;;;;5026892;28;20461;-70
2023/11/27 09:34:56;;;;;;;5.30;3.10;;;21.00;79.00;;;;;;5025188;28;20454;-71
2023/11/27 09:37:23;;;;;;;5.27;3.40;;;21.10;79.20;;;;;;5026935;28;20461;-67
2023/11/27 09:39:49;;;;;;;3.58;3.20;;;21.10;79.30;;;;;;5024004;28;20479;-69
2023/11/27 09:42:16;;;;;;;5.20;3.20;;;21.10;79.40;;;;;;5024826;28;20197;-74
2023/11/27 09:44:43;;;;;;;3.50;2.80;;;21.10;79.40;;;;;;5025490;28;20539;-72
2023/11/27 09:47:12;;;;;;;5.60;3.10;;;21.20;79.60;;;;;;5025912;28;20453;-69
2023/11/27 09:49:46;;;;;;;4.60;3.27;;;21.20;79.60;;;;;;5023380;28;20965;-72
2023/11/27 09:52:19;;;;;;;5.23;3.70;;;21.20;79.60;;;;;;5022382;28;20595;-71
2023/11/27 09:54:54;;;;;;;3.73;3.00;;;21.20;79.70;;;;;;5028272;28;21435;-72
2023/11/27 09:57:22;;;;;;;3.30;2.80;;;21.20;79.70;;;;;;5023915;28;20545;-69
2023/11/27 09:59:49;;;;;;;3.77;3.47;;;21.20;80.60;;;;;;5028044;28;20482;-71
2023/11/27 10:02:15;;;;;;;3.90;3.20;;;21.20;79.80;;;;;;5023837;28;20833;-74
2023/11/27 10:04:43;;;;;;;4.03;3.00;;;21.20;79.90;;;;;;5025327;28;20473;-70
2023/11/27 10:07:10;;;;;;;5.73;3.90;;;21.20;79.80;;;;;;5023574;28;20512;-71
2023/11/27 10:09:38;;;;;;;4.03;3.30;;;21.20;80.00;;;;;;5024529;28;20789;-70
2023/11/27 10:12:06;;;;;;;3.10;2.80;;;21.30;80.00;;;;;;5025041;28;20464;-73
2023/11/27 10:14:33;;;;;;;4.27;2.93;;;21.30;80.10;;;;;;5021986;28;20446;-68
2023/11/27 10:17:01;;;;;;;3.50;3.07;;;21.20;80.10;;;;;;5019974;28;20493;-71
2023/11/27 10:19:28;;;;;;;5.03;3.47;;;21.10;80.10;;;;;;5025458;28;20608;-70
2023/11/27 10:21:56;;;;;;;4.82;3.35;;;21.10;80.30;;;;;;5027662;28;20454;-72
2023/11/27 10:24:22;;;;;;;3.50;2.93;;;21.10;80.40;;;;;;5019781;28;20226;-72
2023/11/27 10:26:50;;;;;;;5.30;3.10;;;21.10;80.60;;;;;;5027815;28;20460;-70
2023/11/27 10:29:25;;;;;;;3.35;3.05;;;21.00;80.60;;;;;;5026531;28;20822;-72
2023/11/27 10:31:54;;;;;;;5.13;3.20;;;21.00;80.70;;;;;;5027931;28;20202;-68
2023/11/27 10:34:22;;;;;;;5.73;3.80;;;21.00;80.90;;;;;;5021217;28;21123;-69
2023/11/27 10:36:56;;;;;;;6.73;3.37;;;21.00;81.00;;;;;;5023808;28;20968;-74
2023/11/27 10:39:25;;;;;;;5.43;2.85;;;21.00;81.10;;;;;;5024067;28;20499;-74
2023/11/27 10:41:55;;;;;;;3.90;2.73;;;21.00;81.20;;;;;;5023761;28;21122;-69
2023/11/27 10:44:24;;;;;;;3.90;2.67;;;21.00;81.20;;;;;;5025402;28;20445;-72
2023/11/27 10:46:53;;;;;;;6.13;2.50;;;21.10;81.60;;;;;;5018919;28;20462;-68
2023/11/27 10:49:24;;;;;;;4.10;3.17;;;21.10;81.30;;;;;;5024234;28;20203;-73
2023/11/27 10:51:53;;;;;;;4.13;2.50;;;21.10;81.30;;;;;;5027795;28;20461;-73
2023/11/27 10:54:21;;;;;;;7.63;2.60;;;21.10;81.00;;;;;;5027152;28;20459;-69
2023/11/27 10:56:48;;;;;;;10.35;3.05;;;21.10;81.10;;;;;;5027601;28;20453;-70
2023/11/27 10:59:20;;;;;;;4.20;2.20;;;21.10;81.20;;;;;;5028831;28;20197;-68
2023/11/27 11:01:52;;;;;;;4.10;3.03;;;21.10;81.30;;;;;;5028701;28;20469;-71
2023/11/27 11:04:27;;;;;;;3.67;2.60;;;21.10;81.40;;;;;;5031731;28;20453;-73
2023/11/27 11:06:56;;;;;;;4.25;3.70;;;21.10;81.50;;;;;;5025942;28;20507;-70
2023/11/27 11:09:25;;;;;;;3.60;2.60;;;21.20;81.50;;;;;;5027369;28;20874;-70
2023/11/27 11:11:55;;;;;;;5.03;3.47;;;21.10;81.50;;;;;;5031470;28;20997;-71
2023/11/27 11:14:26;;;;;;;2.40;2.00;;;21.20;81.70;;;;;;5032949;28;20455;-66
2023/11/27 11:17:07;;;;;;;2.67;2.47;;;21.20;81.80;;;;;;5024478;28;20536;-70
2023/11/27 11:19:42;;;;;;;8.20;2.97;;;21.20;82.60;;;;;;5025907;28;20450;-71
2023/11/27 11:22:22;;;;;;;3.17;2.30;;;21.10;82.50;;;;;;5021399;28;20461;-73
2023/11/27 11:24:59;;;;;;;4.87;2.80;;;21.20;81.90;;;;;;5034245;28;20442;-69
2023/11/27 11:27:35;;;;;;;4.88;2.80;;;21.20;81.80;;;;;;5032312;28;20457;-70
2023/11/27 11:30:04;;;;;;;5.90;3.20;;;21.10;81.60;;;;;;5032093;28;20198;-71
2023/11/27 11:32:31;;;;;;;4.73;2.67;;;21.20;81.90;;;;;;5027767;28;20652;-79
2023/11/27 11:35:02;;;;;;;3.90;2.20;;;21.20;82.00;;;;;;5026729;28;20453;-73
2023/11/27 11:37:30;;;;;;;6.70;2.63;;;21.20;82.10;;;;;;5030318;28;20827;-74
2023/11/27 11:39:57;;;;;;;6.53;2.60;;;21.20;82.10;;;;;;5032225;28;21007;-75
2023/11/27 11:42:29;;;;;;;9.35;2.92;;;21.20;82.10;;;;;;5030398;28;20455;-74
2023/11/27 11:45:16;;;;;;;3.20;2.40;;;21.20;82.20;;;;;;5028415;28;20269;-75
2023/11/27 11:47:43;;;;;;;4.30;2.63;;;21.20;82.30;;;;;;5037733;28;21029;-74
2023/11/27 11:50:28;;;;;;;4.97;2.50;;;21.20;82.40;;;;;;5031670;28;20214;-75
2023/11/27 11:52:57;;;;;;;7.63;2.80;;;21.10;82.60;;;;;;5024955;28;20446;-71
2023/11/27 11:55:26;;;;;;;3.30;2.47;;;21.20;83.00;;;;;;5032519;28;20471;-75
2023/11/27 11:57:55;;;;;;;3.90;2.70;;;21.20;83.20;;;;;;5027400;28;20512;-75
2023/11/27 12:00:24;;;;;;;2.70;2.50;;;21.20;83.40;;;;;;5026279;28;20484;-66
2023/11/27 12:02:54;;;;;;;2.53;2.30;;;21.20;83.60;;;;;;5026954;28;20199;-71
2023/11/27 12:05:23;;;;;;;3.43;2.70;;;21.30;83.70;;;;;;5022880;28;20485;-74
2023/11/27 12:07:50;;;;;;;3.50;2.60;;;21.30;83.80;;;;;;5026054;28;20456;-71
2023/11/27 12:10:17;;;;;;;4.17;2.53;;;21.30;84.00;;;;;;5030594;28;20481;-70
2023/11/27 12:12:48;;;;;;;3.97;2.53;;;21.30;84.10;;;;;;5030257;28;20484;-67
2023/11/27 12:15:16;;;;;;;2.63;2.30;;;21.30;84.20;;;;;;5029037;28;20453;-77
2023/11/27 12:17:50;;;;;;;4.57;2.50;;;21.30;84.30;;;;;;5029449;28;20515;-74
2023/11/27 12:20:21;;;;;;;3.00;2.70;;;21.30;84.40;;;;;;5028991;28;20476;-70
2023/11/27 12:22:48;;;;;;;3.30;2.33;;;21.30;84.40;;;;;;5028867;28;20477;-79
2023/11/27 12:25:18;;;;;;;3.70;3.17;;;21.30;84.40;;;;;;5025603;28;20461;-70
2023/11/27 12:27:45;;;;;;;3.13;2.07;;;21.40;84.50;;;;;;5024013;28;20470;-69
2023/11/27 12:30:17;;;;;;;2.90;2.13;;;21.30;84.40;;;;;;5027340;28;20524;-70
2023/11/27 12:32:44;;;;;;;2.80;2.13;;;21.40;84.60;;;;;;5027973;28;20623;-67
2023/11/27 12:35:14;;;;;;;3.40;2.17;;;21.40;84.60;;;;;;5027175;28;20549;-66
2023/11/27 12:37:42;;;;;;;4.53;2.17;;;21.40;84.60;;;;;;5025651;28;20489;-71
2023/11/27 12:40:16;;;;;;;3.20;2.13;;;21.40;84.80;;;;;;5029523;28;20474;-68
2023/11/27 12:42:43;;;;;;;2.20;2.00;;;21.50;84.90;;;;;;5027490;28;20921;-76